Hakon Mosby — LJIT — position and weather

sailwx.info

Track history (hours):
 
Tides and Currents Weather Stations Pressure Air Temp Water Temp Dewpoint Dewpoint Depression Visibility Wind Speed Wind Dir Waves Ship Positions

Oceanographic research ship Hakon Mosby (Norway)

Detailed information on ship capabilities available from University of Delaware's Ocean Information Center and ARCUS's ALIAS (Arctic Logistics Information and Support) project.

Last reported at 2015-Jan-31 03:31 UTC. Time now 2015-Jan-31 03:57 UTC.
Position N 58°27' E 005°59'.

Type: Dredging. MMSI: 258244000.

Date/timePositionNaut miles runAvg speedWind from/ knotsBaromVisibWave heightAir tempDewpointWater temp
2015-Jan-31 03:31N 58°27' E 005°59'4 7.8
2015-Jan-31 03:00N 58°24' E 005°54'4 9.4 060 / 6975.8 1.3-2.9 1.7
2015-Jan-31 02:34N 58°27' E 005°59'4 7.1
2015-Jan-31 02:00N 58°24' E 005°54'4 9.4 060 / 8975.5 1.3-3.1 2.0
2015-Jan-31 01:34N 58°27' E 005°59'4 7.2
2015-Jan-31 01:00N 58°24' E 005°54'4 9.3 060 / 8974.5 1.5-2.9 1.9
2015-Jan-31 00:33N 58°27' E 005°59'4 7.2
2015-Jan-31 00:00N 58°24' E 005°54'4 9.3 060 / 8974.0 1.5-2.1 1.9
2015-Jan-30 23:33N 58°27' E 005°59'0 0.0
2015-Jan-30 22:33N 58°27' E 005°59'4 7.2
2015-Jan-30 22:00N 58°24' E 005°54'4 9.3 060 / 10973.3 0.8-0.6 1.4
2015-Jan-30 21:33N 58°27' E 005°59'4 7.2
2015-Jan-30 21:00N 58°24' E 005°54'4 9.3 050 / 8973.0 1.0-0.5 1.4
2015-Jan-30 20:33N 58°27' E 005°59'0 0.0
2015-Jan-30 19:33N 58°27' E 005°59'4 7.2
2015-Jan-30 19:00N 58°24' E 005°54'4 9.3 070 / 4972.2 1.0-0.8 1.7
2015-Jan-30 18:33N 58°27' E 005°59'4 7.2
2015-Jan-30 18:00N 58°24' E 005°54'4 9.3 070 / 6971.6 1.5-0.7 2.0
2015-Jan-30 17:33N 58°27' E 005°59'0 0.0
2015-Jan-30 16:33N 58°27' E 005°59'4 7.2
2015-Jan-30 16:00N 58°24' E 005°54'4 9.3 230 / 6970.5 3.3-0.1 2.0
2015-Jan-30 15:33N 58°27' E 005°59'4 7.2
2015-Jan-30 15:00N 58°24' E 005°54'4 9.3 220 / 8970.0 3.7 0.2 1.9
2015-Jan-30 14:33N 58°27' E 005°59'4 7.2
2015-Jan-30 14:00N 58°24' E 005°54'4 9.2 230 / 10969.9 3.5 0.4 1.7
2015-Jan-30 13:33N 58°27' E 005°59'4 7.2
2015-Jan-30 13:00N 58°24' E 005°54'4 9.2 230 / 4969.9 3.5 0.5 2.0
2015-Jan-30 12:33N 58°27' E 005°59'4 7.2
2015-Jan-30 12:00N 58°24' E 005°54'4 9.2 240 / 6969.8 3.1 0.2 1.9
2015-Jan-30 11:33N 58°27' E 005°59'4 7.2
2015-Jan-30 11:00N 58°24' E 005°54'4 9.2 220 / 2969.8 3.3 0.5 1.9
2015-Jan-30 10:33N 58°27' E 005°59'0 0.0
2015-Jan-30 09:33N 58°27' E 005°59'4 7.2
2015-Jan-30 09:00N 58°24' E 005°54'3 7.2 170 / 8969.4 3.6 0.1 1.5
2015-Jan-30 08:34N 58°24' E 005°60'712.4
2015-Jan-30 08:00N 58°18' E 005°54'2 5.4 170 / 27968.8 3.7 0.7 5.8
2015-Jan-30 07:34N 58°20' E 005°55'8 5.8
2015-Jan-30 06:07N 58°20' E 005°39'219.1
2015-Jan-30 06:00N 58°18' E 005°36'5 5.5 220 / 23967.4 4.5-0.3 5.9
2015-Jan-30 05:10N 58°20' E 005°29'320.1
2015-Jan-30 05:00N 58°18' E 005°24'5 8.6 200 / 23967.1 3.8 1.1 5.6
2015-Jan-30 04:21N 58°20' E 005°34'2 5.5
2015-Jan-30 04:00N 58°18' E 005°36'510.7 200 / 21967.0 4.5 0.9 5.9
2015-Jan-30 03:34N 58°19' E 005°45'713.0
2015-Jan-30 03:00N 58°12' E 005°42'511.9 210 / 19967.5 4.5 0.4 5.9
2015-Jan-30 02:33N 58°17' E 005°47'5 8.3
2015-Jan-30 02:00N 58°12' E 005°48'614.2 220 / 19967.5 4.9-0.3 5.8
2015-Jan-30 01:32N 58°18' E 005°53'0 0.8
2015-Jan-30 01:00N 58°18' E 005°54'3 6.9 210 / 19967.5 5.0-1.3 5.8
2015-Jan-30 00:34N 58°18' E 005°60'611.1
2015-Jan-30 00:00N 58°12' E 006°00'612.8 210 / 19967.7 4.9-1.1 5.8
2015-Jan-29 23:33N 58°16' E 006°07'5 8.9
2015-Jan-29 23:00N 58°12' E 006°12'4 8.4 200 / 17967.8 4.3 0.8 5.9
2015-Jan-29 22:33N 58°11' E 006°19'5 9.7
2015-Jan-29 22:00N 58°06' E 006°18'510.7 220 / 17968.3 2.7 0.4 5.7
2015-Jan-29 21:33N 58°10' E 006°23'4 6.6
2015-Jan-29 21:00N 58°06' E 006°24'512.1 230 / 17968.0 2.8 0.1 5.6
2015-Jan-29 20:33N 58°11' E 006°29'5 9.4
2015-Jan-29 20:00N 58°06' E 006°24'3 3.2 240 / 19968.1 3.6-0.3 5.9
2015-Jan-29 19:00N 58°06' E 006°30'3 3.2 260 / 16968.5 3.2 0.1 6.1
2015-Jan-29 18:00N 58°06' E 006°36'7 3.4 260 / 16968.3 3.1 0.5 6.0
2015-Jan-29 16:00N 58°12' E 006°42'9 8.7 250 / 12968.8 1.6-0.1 6.0
2015-Jan-29 15:00N 58°06' E 006°30'15 7.7 260 / 23968.5 2.6 0.1 5.9
2015-Jan-29 13:00N 57°54' E 006°48'10 9.6 250 / 23968.8 2.7-0.3 5.8
2015-Jan-29 12:00N 57°54' E 007°06'6 6.4 260 / 14969.3 3.4-1.9 6.1
2015-Jan-29 11:00N 57°54' E 007°18'16 8.0 280 / 27969.5 3.0 0.1 5.8
2015-Jan-29 09:00N 57°54' E 007°48'9 8.7 270 / 27969.0 3.7 0.8 5.8
2015-Jan-29 08:00N 58°00' E 008°00'7 3.4 260 / 27968.9 3.1 0.1 5.8
2015-Jan-29 06:00N 58°06' E 007°54'0 0.0 270 / 8968.8 2.5-0.6 5.9
2015-Jan-29 05:00N 58°06' E 007°54'0 0.0 270 / 6968.8 2.6-0.5 5.8
2015-Jan-29 03:00N 58°06' E 007°54'0 0.0 270 / 10969.0 2.2-0.8 5.6
2015-Jan-29 01:00N 58°06' E 007°54'0 0.0 270 / 8969.4 2.7-0.3 5.4
2015-Jan-29 00:00N 58°06' E 007°54'0 0.0 260 / 6969.9 3.0 0.2 5.6
2015-Jan-28 23:00N 58°06' E 007°54'0 0.0 260 / 8970.3 3.2 0.3 5.2
2015-Jan-28 22:00N 58°06' E 007°54'0 0.0 260 / 6970.9 3.2 0.5 5.6
2015-Jan-28 21:00N 58°06' E 007°54'0 0.0 260 / 6971.5 3.4 0.4 5.4
2015-Jan-28 19:00N 58°06' E 007°54'0 0.0 240 / 6972.5 4.3 2.3 5.1
2015-Jan-28 18:00N 58°06' E 007°54'0 0.0 260 / 6972.6 4.4 2.4 4.9
2015-Jan-28 17:00N 58°06' E 007°54'0 0.0 230 / 8973.6 5.3 3.3 4.8
2015-Jan-28 16:00N 58°06' E 007°54'0 0.0 190 / 14974.5 6.0 4.8 4.7
2015-Jan-28 15:00N 58°06' E 007°54'0 0.0 180 / 16976.5 5.6 4.4 4.4
2015-Jan-28 13:00N 58°06' E 007°54'0 0.0 210 / 14981.6 5.5 3.9 4.6
2015-Jan-28 12:00N 58°06' E 007°54'0 0.0 220 / 17984.2 5.3 3.6 4.3
2015-Jan-28 10:00N 58°06' E 007°54'0 0.0 220 / 17988.5 4.0 2.8 4.6
2015-Jan-28 09:00N 58°06' E 007°54'0 0.0 220 / 17990.7 5.5 4.1 4.1
2015-Jan-28 08:00N 58°06' E 007°54'0 0.0 230 / 12992.7 5.4 4.0 4.9
2015-Jan-28 06:00N 58°06' E 007°54'0 0.0 240 / 12995.9 5.7 3.7 4.9
2015-Jan-28 04:00N 58°06' E 007°54'0 0.0 240 / 14999.5 6.1 4.6 4.0
2015-Jan-28 03:00N 58°06' E 007°54'0 0.0 240 / 121001.0 6.1 4.4 5.6
2015-Jan-28 02:00N 58°06' E 007°54'0 0.0 250 / 81002.7 6.3 4.2 5.5
2015-Jan-28 01:00N 58°06' E 007°54'0 0.0 270 / 61004.0 6.0 4.4 5.1
2015-Jan-28 00:00N 58°06' E 007°54'0 0.0 250 / 101005.2 6.0 4.5 5.3
2015-Jan-27 23:00N 58°06' E 007°54'0 0.0 240 / 101006.7 6.2 4.8 4.8
2015-Jan-27 22:00N 58°06' E 007°54'0 0.0 240 / 81008.0 6.2 4.8 5.0
2015-Jan-27 21:00N 58°06' E 007°54'0 0.0 230 / 81008.8 5.7 4.4 5.6
2015-Jan-27 20:00N 58°06' E 007°54'0 0.0 220 / 81009.8 5.9 4.3 5.8
2015-Jan-27 19:00N 58°06' E 007°54'0 0.0 240 / 41010.8 5.0 3.3 5.3
2015-Jan-27 18:00N 58°06' E 007°54'0 0.0 240 / 41011.6 4.6 2.1 5.2
2015-Jan-27 17:00N 58°06' E 007°54'0 0.0 240 / 61012.4 4.6 1.5 4.2
2015-Jan-27 16:00N 58°06' E 007°54'0 0.0 240 / 81012.3 4.8 0.3 2.9
2015-Jan-27 15:00N 58°06' E 007°54'0 0.0 260 / 41012.7 6.0-1.0 4.6
2015-Jan-27 13:00N 58°06' E 007°54'0 0.0 280 / 41013.5 6.6-1.9 4.1
2015-Jan-27 12:00N 58°06' E 007°54'0 0.0 240 / 41013.7 6.1-2.9 4.9
2015-Jan-27 10:00N 58°06' E 007°54'0 0.0 260 / 21014.2 2.5-3.7 4.8
2015-Jan-27 09:00N 58°06' E 007°54'0 0.0 230 / 21013.8 1.0-4.7 5.1
2015-Jan-27 07:00N 58°06' E 007°54'0 0.0 190 / 2 2.7-4.5 5.7
2015-Jan-27 05:00N 58°06' E 007°54'0 0.0 110 / 21012.0 2.7-5.5 6.5
2015-Jan-27 03:00N 58°06' E 007°54'0 0.0 300 / 61010.3 3.0-4.9 6.3
2015-Jan-27 00:00N 58°06' E 007°54'3 3.2 320 / 121009.2 3.7-3.2 5.7
2015-Jan-26 23:00N 58°06' E 008°00'2010.0 300 / 121008.2 4.1-2.0 2.8
2015-Jan-26 21:00N 57°54' E 007°30'2211.2 300 / 171008.5 4.6 0.8 5.5
2015-Jan-26 19:00N 57°54' E 006°48'1312.8 330 / 191008.5 4.7 1.9 5.3
2015-Jan-26 18:00N 57°54' E 006°24'3 3.2 320 / 211008.5 5.6 1.9 6.0
2015-Jan-26 17:00N 57°54' E 006°18'0 0.0 320 / 171008.4 5.4 2.0 5.9
2015-Jan-26 16:00N 57°54' E 006°18'914.7 310 / 191007.7 5.3 1.9 5.9
2015-Jan-26 15:21N 58°01' E 006°06'3 9.2
2015-Jan-26 15:00N 58°00' E 006°00'3 3.2 310 / 211007.5 5.5 2.2 5.5
2015-Jan-26 14:00N 58°00' E 005°54'7 3.4 300 / 191007.5 5.3 2.1 5.5
2015-Jan-26 12:00N 57°54' E 005°48'7 8.5 290 / 161007.7 6.5 2.7 5.8
2015-Jan-26 11:11N 58°00' E 005°42'316.7
2015-Jan-26 11:00N 58°00' E 005°36'2 4.8 290 / 101008.1 6.5 2.2 6.0
2015-Jan-26 10:33N 58°02' E 005°36'4 6.7
2015-Jan-26 10:00N 58°00' E 005°30'4 8.7 290 / 61008.5 5.9 1.4 6.0
2015-Jan-26 09:33N 58°04' E 005°31'5 9.5
2015-Jan-26 09:00N 58°00' E 005°24'6 3.0 270 / 121008.3 6.8 4.8 6.0
2015-Jan-26 07:00N 57°54' E 005°24'9 8.8 310 / 101009.2 6.6 4.9 6.0
2015-Jan-26 06:00N 57°48' E 005°36'9 4.4 300 / 121009.2 7.0 6.1 5.9
2015-Jan-26 04:00N 57°42' E 005°48'0 0.0 260 / 161009.6 7.3 6.4 6.3
2015-Jan-26 03:00N 57°42' E 005°48'7 6.8 240 / 171010.2 7.5 6.5 6.6
2015-Jan-26 02:00N 57°36' E 005°54'0 0.0 230 / 191011.5 7.1 6.3 5.9
2015-Jan-26 01:00N 57°36' E 005°54'9 8.8 230 / 191011.8 7.0 5.9 5.9
2015-Jan-26 00:00N 57°42' E 006°06'19 9.6 220 / 211013.2 6.5 5.4 5.6
2015-Jan-25 22:00N 57°42' E 006°42'10 9.6 200 / 171015.9 6.1 4.9 5.4
2015-Jan-25 21:00N 57°42' E 007°00'1414.1 200 / 171016.9 5.9 4.7 5.5
2015-Jan-25 20:00N 57°48' E 007°24'19 9.6 210 / 161018.5 6.1 4.2 5.4
2015-Jan-25 18:00N 57°48' E 008°00'1414.1 230 / 101020.0 5.9 4.0 5.0
2015-Jan-25 17:00N 57°54' E 008°24'3 3.2 220 / 81020.2 5.5 3.1 5.6
2015-Jan-25 16:00N 57°54' E 008°30'16 6.7 260 / 81020.3 5.0 2.2 5.1
2015-Jan-25 13:32N 58°09' E 008°43'3 5.8
2015-Jan-25 13:00N 58°12' E 008°42'7 6.8 320 / 21020.3 3.0-1.9 4.8
2015-Jan-25 12:00N 58°18' E 008°48'11 2.2 350 / 61020.7 2.0-3.3 4.4
2015-Jan-25 07:00N 58°24' E 009°06'0 0.0 320 / 81018.7 2.3-5.7 4.6
2015-Jan-25 06:00N 58°24' E 009°06'7 3.4 300 / 61018.3 2.3-4.4 4.6
2015-Jan-25 04:00N 58°30' E 009°12'7 6.8 300 / 101016.6 2.1-4.4 3.9
2015-Jan-25 03:00N 58°36' E 009°18'0 0.0 290 / 121015.7 2.1-4.4 4.0
2015-Jan-25 02:00N 58°36' E 009°18'6 6.0 280 / 61015.2 2.1-3.2 3.9
2015-Jan-25 01:00N 58°30' E 009°18'1212.4 290 / 121014.6 2.7-2.7 5.1
2015-Jan-25 00:00N 58°18' E 009°24'6 2.1 300 / 171013.7 3.5-1.4 4.6
2015-Jan-24 21:00N 58°18' E 009°36'9 9.5 290 / 191012.0 4.2-0.5 6.0
2015-Jan-24 20:00N 58°18' E 009°54'6 3.0 280 / 211011.3 4.5-0.2 6.1
2015-Jan-24 18:00N 58°24' E 009°54'9 8.7 270 / 251010.3 4.6-0.5 5.9
2015-Jan-24 17:00N 58°30' E 009°42'19 4.8 260 / 231009.6 4.5 0.1 5.0
2015-Jan-24 13:00N 58°48' E 009°54'12 4.1 300 / 141006.6 3.9 0.9 4.3
2015-Jan-24 10:00N 59°00' E 010°00'0 0.0 220 / 121004.7 3.9 2.3 2.1
2015-Jan-24 09:00N 59°00' E 010°00'0 0.0 210 / 251004.6 3.6 1.8 2.6
2015-Jan-24 07:00N 59°00' E 010°00'0 0.0 210 / 191006.0 2.2 0.4 1.5
2015-Jan-24 06:00N 59°00' E 010°00'0 0.0 200 / 231006.2 2.2-0.1
2015-Jan-24 04:00N 59°00' E 010°00'0 0.0 220 / 271007.6 1.6-0.1 3.6
2015-Jan-24 03:00N 59°00' E 010°00'0 0.0 210 / 231008.3 2.1-0.0
2015-Jan-24 02:00N 59°00' E 010°00'0 0.0 210 / 271009.0 2.9 0.3
2015-Jan-24 01:00N 59°00' E 010°00'0 0.0 210 / 291010.0 3.1-14.9 1.2
2015-Jan-24 00:00N 59°00' E 010°00'6 3.0 210 / 331010.7 3.2 0.6 3.6
2015-Jan-23 22:00N 58°54' E 010°00'9 4.3 210 / 331013.1 4.0 0.2 3.8
2015-Jan-23 20:00N 58°48' E 009°48'7 3.4 220 / 291014.5 4.3-0.2 3.9
2015-Jan-23 18:00N 58°42' E 009°42'0 0.0 220 / 291016.5 3.1-2.1 3.2
2015-Jan-23 17:00N 58°42' E 009°42'7 2.3 230 / 231016.7 3.5 1.1 3.5
2015-Jan-23 14:00N 58°48' E 009°48'0 0.0 300 1019.6 -2.7-5.5 2.8
2015-Jan-23 11:00N 58°48' E 009°48'3 3.1 310 / 21022.1 -4.6-7.8 3.1
2015-Jan-23 10:00N 58°48' E 009°54'17 5.5 330 / 61023.2 -4.0-6.7 2.6
2015-Jan-23 07:00N 58°54' E 010°24'3 3.1 240 / 61022.8 -1.5-5.9 3.0
2015-Jan-23 06:00N 58°54' E 010°30'7 6.8 220 / 21022.8 -2.0-6.3 3.0
2015-Jan-23 05:00N 58°48' E 010°24'3 3.1 300 / 21023.2 -2.2-6.4 3.1
2015-Jan-23 04:00N 58°48' E 010°18'3 3.1 310 / 41023.3 -2.2-6.8 3.1
2015-Jan-23 03:00N 58°48' E 010°12'6 3.0 320 / 41023.5 -2.1-50.1 3.0
2015-Jan-23 01:00N 58°42' E 010°12'0 0.0 360 / 61024.0 -1.4-6.4 5.8
2015-Jan-23 00:00N 58°42' E 010°12'7 3.4 030 / 61024.0 -1.1-6.4 5.9
2015-Jan-22 22:00N 58°36' E 010°18'4 8.4 020 / 81024.0 -0.6-6.5 5.9
2015-Jan-22 21:31N 58°39' E 010°22'4 7.0
2015-Jan-22 21:00N 58°36' E 010°24'3 8.0 030 / 101024.0 -0.9-6.0 5.1
2015-Jan-22 20:33N 58°39' E 010°27'6 5.8
2015-Jan-22 19:33N 58°35' E 010°34'5 9.1
2015-Jan-22 19:00N 58°30' E 010°36'2 3.9 030 / 121023.8 -0.3-5.2 5.6
2015-Jan-22 18:33N 58°31' E 010°38'4 7.9
2015-Jan-22 18:00N 58°30' E 010°30'0 0.3 030 / 121023.7 -0.1-5.0 5.8
2015-Jan-22 17:32N 58°30' E 010°30'611.0
2015-Jan-22 17:00N 58°24' E 010°30'4 8.0 040 / 161023.2 0.3-4.1 5.9
2015-Jan-22 16:33N 58°27' E 010°32'4 6.2
2015-Jan-22 16:00N 58°24' E 010°30'2 4.9 060 / 141023.0 0.6-3.6 5.5
2015-Jan-22 15:33N 58°24' E 010°34'611.1
2015-Jan-22 15:00N 58°18' E 010°30'512.5 050 / 141022.6 0.4-2.9 5.8
2015-Jan-22 14:33N 58°23' E 010°35'8 8.4
2015-Jan-22 13:33N 58°19' E 010°21'2 2.4
2015-Jan-22 12:33N 58°20' E 010°24'2 4.1
2015-Jan-22 12:00N 58°18' E 010°24'715.7 060 / 161022.6 0.7-2.3 5.9
2015-Jan-22 11:33N 58°21' E 010°36'3 4.5
2015-Jan-22 11:00N 58°18' E 010°36'1 2.7 080 / 121022.3 1.1-2.2 5.9
2015-Jan-22 10:33N 58°17' E 010°38'2 2.4
2015-Jan-22 09:33N 58°20' E 010°36'2 2.9
2015-Jan-22 09:00N 58°18' E 010°36'3 6.1 090 / 121022.3 1.6-2.0 5.7
2015-Jan-22 08:33N 58°17' E 010°40'5 9.1
2015-Jan-22 08:00N 58°12' E 010°36'4 8.7 090 / 121021.8 1.3-2.1 5.9
2015-Jan-22 07:33N 58°14' E 010°43'815.2
2015-Jan-22 07:00N 58°06' E 010°36'4 8.4 070 / 121021.1 1.6-1.9 5.9
2015-Jan-22 06:33N 58°09' E 010°41'4 6.5
2015-Jan-22 06:00N 58°06' E 010°36'410.3 060 / 81020.7 1.6-1.8 5.9
2015-Jan-22 05:33N 58°10' E 010°38'4 8.0
2015-Jan-22 05:00N 58°06' E 010°36'4 8.5 060 / 81020.7 2.1-1.1 5.9
2015-Jan-22 04:33N 58°09' E 010°41'1017.0
2015-Jan-22 04:00N 58°00' E 010°48'511.9 060 / 121020.5 1.1-1.6 4.8
2015-Jan-22 03:33N 58°03' E 010°56'3 5.3
2015-Jan-22 03:00N 58°00' E 010°54'2 4.7 070 / 81020.6 1.1-1.8 4.6
2015-Jan-22 02:33N 58°00' E 010°50'813.4
2015-Jan-22 02:00N 57°54' E 010°42'613.9 050 / 101020.6 1.3-1.5 6.2
2015-Jan-22 01:33N 58°00' E 010°41'3 5.1
2015-Jan-22 01:00N 58°00' E 010°36'3 7.6 050 / 101020.5 1.6-1.7 6.2
2015-Jan-22 00:33N 58°03' E 010°34'610.4
2015-Jan-22 00:00N 58°06' E 010°24'1 1.7 060 / 121020.5 1.8-1.9 6.1
2015-Jan-21 23:33N 58°07' E 010°24'3 5.6
2015-Jan-21 23:00N 58°06' E 010°18'320.1 050 / 121020.6 1.9-1.5 6.3
2015-Jan-21 22:50N 58°09' E 010°21'1 9.0
2015-Jan-21 22:46N 58°09' E 010°21'1 5.4
2015-Jan-21 22:30N 58°11' E 010°21'5 9.7
2015-Jan-21 22:00N 58°06' E 010°18'4 8.8 070 / 121020.6 1.8-1.7 6.4
2015-Jan-21 21:33N 58°10' E 010°17'711.9
2015-Jan-21 21:00N 58°06' E 010°06'6 3.2 050 / 141020.2 2.3-1.4 6.6
2015-Jan-21 19:00N 58°06' E 009°54'7 6.8 060 / 161019.7 2.2-2.1 6.0
2015-Jan-21 18:00N 58°00' E 009°48'6 3.0 060 / 161019.3 1.7-1.4 6.3
2015-Jan-21 16:00N 58°06' E 009°48'1111.3 090 / 191018.5 2.3-1.6 6.1
2015-Jan-21 15:00N 58°00' E 009°30'6 6.0 080 / 171017.8 2.6-1.8 6.0
2015-Jan-21 14:00N 57°54' E 009°30'15 7.7 070 / 161017.7 1.3-1.5 6.1
2015-Jan-21 12:00N 57°42' E 009°48'1212.4 100 / 141017.3 2.4-1.2 6.1
2015-Jan-21 11:00N 57°30' E 009°54'0 0.0 110 / 61017.2 2.1-0.3 4.3
2015-Jan-21 09:00N 57°30' E 009°54'0 0.0 130 / 41016.7 0.6-0.8 4.1
2015-Jan-21 07:00N 57°30' E 009°54'0 0.0 110 / 101015.3 0.7-0.5 4.3
2015-Jan-21 06:00N 57°30' E 009°54'0 0.0 110 / 101014.8 1.3 0.1 4.1
2015-Jan-21 04:00N 57°30' E 009°54'   110 / 41014.6 0.6-0.7 4.1
Track history (hours):
 
Tides and Currents Weather Stations Pressure Air Temp Water Temp Dewpoint Dewpoint Depression Visibility Wind Speed Wind Dir Waves Ship Positions

Oceanographic research ship Hakon Mosby (Norway)

Detailed information on ship capabilities available from University of Delaware's Ocean Information Center and ARCUS's ALIAS (Arctic Logistics Information and Support) project.

Last reported at 2015-Jan-31 03:31 UTC. Time now 2015-Jan-31 03:57 UTC.
Position N 58°27' E 005°59'.

Type: Dredging. MMSI: 258244000.

Date/timePositionNaut miles runAvg speedWind from/ knotsBaromVisibWave heightAir tempDewpointWater temp
2015-Jan-31 03:31N 58°27' E 005°59'4 7.8
2015-Jan-31 03:00N 58°24' E 005°54'4 9.4 060 / 6975.8 1.3-2.9 1.7
2015-Jan-31 02:34N 58°27' E 005°59'4 7.1
2015-Jan-31 02:00N 58°24' E 005°54'4 9.4 060 / 8975.5 1.3-3.1 2.0
2015-Jan-31 01:34N 58°27' E 005°59'4 7.2
2015-Jan-31 01:00N 58°24' E 005°54'4 9.3 060 / 8974.5 1.5-2.9 1.9
2015-Jan-31 00:33N 58°27' E 005°59'4 7.2
2015-Jan-31 00:00N 58°24' E 005°54'4 9.3 060 / 8974.0 1.5-2.1 1.9
2015-Jan-30 23:33N 58°27' E 005°59'0 0.0
2015-Jan-30 22:33N 58°27' E 005°59'4 7.2
2015-Jan-30 22:00N 58°24' E 005°54'4 9.3 060 / 10973.3 0.8-0.6 1.4
2015-Jan-30 21:33N 58°27' E 005°59'4 7.2
2015-Jan-30 21:00N 58°24' E 005°54'4 9.3 050 / 8973.0 1.0-0.5 1.4
2015-Jan-30 20:33N 58°27' E 005°59'0 0.0
2015-Jan-30 19:33N 58°27' E 005°59'4 7.2
2015-Jan-30 19:00N 58°24' E 005°54'4 9.3 070 / 4972.2 1.0-0.8 1.7
2015-Jan-30 18:33N 58°27' E 005°59'4 7.2
2015-Jan-30 18:00N 58°24' E 005°54'4 9.3 070 / 6971.6 1.5-0.7 2.0
2015-Jan-30 17:33N 58°27' E 005°59'0 0.0
2015-Jan-30 16:33N 58°27' E 005°59'4 7.2
2015-Jan-30 16:00N 58°24' E 005°54'4 9.3 230 / 6970.5 3.3-0.1 2.0
2015-Jan-30 15:33N 58°27' E 005°59'4 7.2
2015-Jan-30 15:00N 58°24' E 005°54'4 9.3 220 / 8970.0 3.7 0.2 1.9
2015-Jan-30 14:33N 58°27' E 005°59'4 7.2
2015-Jan-30 14:00N 58°24' E 005°54'4 9.2 230 / 10969.9 3.5 0.4 1.7
2015-Jan-30 13:33N 58°27' E 005°59'4 7.2
2015-Jan-30 13:00N 58°24' E 005°54'4 9.2 230 / 4969.9 3.5 0.5 2.0
2015-Jan-30 12:33N 58°27' E 005°59'4 7.2
2015-Jan-30 12:00N 58°24' E 005°54'4 9.2 240 / 6969.8 3.1 0.2 1.9
2015-Jan-30 11:33N 58°27' E 005°59'4 7.2
2015-Jan-30 11:00N 58°24' E 005°54'4 9.2 220 / 2969.8 3.3 0.5 1.9
2015-Jan-30 10:33N 58°27' E 005°59'0 0.0
2015-Jan-30 09:33N 58°27' E 005°59'4 7.2
2015-Jan-30 09:00N 58°24' E 005°54'3 7.2 170 / 8969.4 3.6 0.1 1.5
2015-Jan-30 08:34N 58°24' E 005°60'712.4
2015-Jan-30 08:00N 58°18' E 005°54'2 5.4 170 / 27968.8 3.7 0.7 5.8
2015-Jan-30 07:34N 58°20' E 005°55'8 5.8
2015-Jan-30 06:07N 58°20' E 005°39'219.1
2015-Jan-30 06:00N 58°18' E 005°36'5 5.5 220 / 23967.4 4.5-0.3 5.9
2015-Jan-30 05:10N 58°20' E 005°29'320.1
2015-Jan-30 05:00N 58°18' E 005°24'5 8.6 200 / 23967.1 3.8 1.1 5.6
2015-Jan-30 04:21N 58°20' E 005°34'2 5.5
2015-Jan-30 04:00N 58°18' E 005°36'510.7 200 / 21967.0 4.5 0.9 5.9
2015-Jan-30 03:34N 58°19' E 005°45'713.0
2015-Jan-30 03:00N 58°12' E 005°42'511.9 210 / 19967.5 4.5 0.4 5.9
2015-Jan-30 02:33N 58°17' E 005°47'5 8.3
2015-Jan-30 02:00N 58°12' E 005°48'614.2 220 / 19967.5 4.9-0.3 5.8
2015-Jan-30 01:32N 58°18' E 005°53'0 0.8
2015-Jan-30 01:00N 58°18' E 005°54'3 6.9 210 / 19967.5 5.0-1.3 5.8
2015-Jan-30 00:34N 58°18' E 005°60'611.1
2015-Jan-30 00:00N 58°12' E 006°00'612.8 210 / 19967.7 4.9-1.1 5.8
2015-Jan-29 23:33N 58°16' E 006°07'5 8.9
2015-Jan-29 23:00N 58°12' E 006°12'4 8.4 200 / 17967.8 4.3 0.8 5.9
2015-Jan-29 22:33N 58°11' E 006°19'5 9.7
2015-Jan-29 22:00N 58°06' E 006°18'510.7 220 / 17968.3 2.7 0.4 5.7
2015-Jan-29 21:33N 58°10' E 006°23'4 6.6
2015-Jan-29 21:00N 58°06' E 006°24'512.1 230 / 17968.0 2.8 0.1 5.6
2015-Jan-29 20:33N 58°11' E 006°29'5 9.4
2015-Jan-29 20:00N 58°06' E 006°24'3 3.2 240 / 19968.1 3.6-0.3 5.9
2015-Jan-29 19:00N 58°06' E 006°30'3 3.2 260 / 16968.5 3.2 0.1 6.1
2015-Jan-29 18:00N 58°06' E 006°36'7 3.4 260 / 16968.3 3.1 0.5 6.0
2015-Jan-29 16:00N 58°12' E 006°42'9 8.7 250 / 12968.8 1.6-0.1 6.0
2015-Jan-29 15:00N 58°06' E 006°30'15 7.7 260 / 23968.5 2.6 0.1 5.9
2015-Jan-29 13:00N 57°54' E 006°48'10 9.6 250 / 23968.8 2.7-0.3 5.8
2015-Jan-29 12:00N 57°54' E 007°06'6 6.4 260 / 14969.3 3.4-1.9 6.1
2015-Jan-29 11:00N 57°54' E 007°18'16 8.0 280 / 27969.5 3.0 0.1 5.8
2015-Jan-29 09:00N 57°54' E 007°48'9 8.7 270 / 27969.0 3.7 0.8 5.8
2015-Jan-29 08:00N 58°00' E 008°00'7 3.4 260 / 27968.9 3.1 0.1 5.8
2015-Jan-29 06:00N 58°06' E 007°54'0 0.0 270 / 8968.8 2.5-0.6 5.9
2015-Jan-29 05:00N 58°06' E 007°54'0 0.0 270 / 6968.8 2.6-0.5 5.8
2015-Jan-29 03:00N 58°06' E 007°54'0 0.0 270 / 10969.0 2.2-0.8 5.6
2015-Jan-29 01:00N 58°06' E 007°54'0 0.0 270 / 8969.4 2.7-0.3 5.4
2015-Jan-29 00:00N 58°06' E 007°54'0 0.0 260 / 6969.9 3.0 0.2 5.6
2015-Jan-28 23:00N 58°06' E 007°54'0 0.0 260 / 8970.3 3.2 0.3 5.2
2015-Jan-28 22:00N 58°06' E 007°54'0 0.0 260 / 6970.9 3.2 0.5 5.6
2015-Jan-28 21:00N 58°06' E 007°54'0 0.0 260 / 6971.5 3.4 0.4 5.4
2015-Jan-28 19:00N 58°06' E 007°54'0 0.0 240 / 6972.5 4.3 2.3 5.1
2015-Jan-28 18:00N 58°06' E 007°54'0 0.0 260 / 6972.6 4.4 2.4 4.9
2015-Jan-28 17:00N 58°06' E 007°54'0 0.0 230 / 8973.6 5.3 3.3 4.8
2015-Jan-28 16:00N 58°06' E 007°54'0 0.0 190 / 14974.5 6.0 4.8 4.7
2015-Jan-28 15:00N 58°06' E 007°54'0 0.0 180 / 16976.5 5.6 4.4 4.4
2015-Jan-28 13:00N 58°06' E 007°54'0 0.0 210 / 14981.6 5.5 3.9 4.6
2015-Jan-28 12:00N 58°06' E 007°54'0 0.0 220 / 17984.2 5.3 3.6 4.3
2015-Jan-28 10:00N 58°06' E 007°54'0 0.0 220 / 17988.5 4.0 2.8 4.6
2015-Jan-28 09:00N 58°06' E 007°54'0 0.0 220 / 17990.7 5.5 4.1 4.1
2015-Jan-28 08:00N 58°06' E 007°54'0 0.0 230 / 12992.7 5.4 4.0 4.9
2015-Jan-28 06:00N 58°06' E 007°54'0 0.0 240 / 12995.9 5.7 3.7 4.9
2015-Jan-28 04:00N 58°06' E 007°54'0 0.0 240 / 14999.5 6.1 4.6 4.0
2015-Jan-28 03:00N 58°06' E 007°54'0 0.0 240 / 121001.0 6.1 4.4 5.6
2015-Jan-28 02:00N 58°06' E 007°54'0 0.0 250 / 81002.7 6.3 4.2 5.5
2015-Jan-28 01:00N 58°06' E 007°54'0 0.0 270 / 61004.0 6.0 4.4 5.1
2015-Jan-28 00:00N 58°06' E 007°54'0 0.0 250 / 101005.2 6.0 4.5 5.3
2015-Jan-27 23:00N 58°06' E 007°54'0 0.0 240 / 101006.7 6.2 4.8 4.8
2015-Jan-27 22:00N 58°06' E 007°54'0 0.0 240 / 81008.0 6.2 4.8 5.0
2015-Jan-27 21:00N 58°06' E 007°54'0 0.0 230 / 81008.8 5.7 4.4 5.6
2015-Jan-27 20:00N 58°06' E 007°54'0 0.0 220 / 81009.8 5.9 4.3 5.8
2015-Jan-27 19:00N 58°06' E 007°54'0 0.0 240 / 41010.8 5.0 3.3 5.3
2015-Jan-27 18:00N 58°06' E 007°54'0 0.0 240 / 41011.6 4.6 2.1 5.2
2015-Jan-27 17:00N 58°06' E 007°54'0 0.0 240 / 61012.4 4.6 1.5 4.2
2015-Jan-27 16:00N 58°06' E 007°54'0 0.0 240 / 81012.3 4.8 0.3 2.9
2015-Jan-27 15:00N 58°06' E 007°54'0 0.0 260 / 41012.7 6.0-1.0 4.6
2015-Jan-27 13:00N 58°06' E 007°54'0 0.0 280 / 41013.5 6.6-1.9 4.1
2015-Jan-27 12:00N 58°06' E 007°54'0 0.0 240 / 41013.7 6.1-2.9 4.9
2015-Jan-27 10:00N 58°06' E 007°54'0 0.0 260 / 21014.2 2.5-3.7 4.8
2015-Jan-27 09:00N 58°06' E 007°54'0 0.0 230 / 21013.8 1.0-4.7 5.1
2015-Jan-27 07:00N 58°06' E 007°54'0 0.0 190 / 2 2.7-4.5 5.7
2015-Jan-27 05:00N 58°06' E 007°54'0 0.0 110 / 21012.0 2.7-5.5 6.5
2015-Jan-27 03:00N 58°06' E 007°54'0 0.0 300 / 61010.3 3.0-4.9 6.3
2015-Jan-27 00:00N 58°06' E 007°54'3 3.2 320 / 121009.2 3.7-3.2 5.7
2015-Jan-26 23:00N 58°06' E 008°00'2010.0 300 / 121008.2 4.1-2.0 2.8
2015-Jan-26 21:00N 57°54' E 007°30'2211.2 300 / 171008.5 4.6 0.8 5.5
2015-Jan-26 19:00N 57°54' E 006°48'1312.8 330 / 191008.5 4.7 1.9 5.3
2015-Jan-26 18:00N 57°54' E 006°24'3 3.2 320 / 211008.5 5.6 1.9 6.0
2015-Jan-26 17:00N 57°54' E 006°18'0 0.0 320 / 171008.4 5.4 2.0 5.9
2015-Jan-26 16:00N 57°54' E 006°18'914.7 310 / 191007.7 5.3 1.9 5.9
2015-Jan-26 15:21N 58°01' E 006°06'3 9.2
2015-Jan-26 15:00N 58°00' E 006°00'3 3.2 310 / 211007.5 5.5 2.2 5.5
2015-Jan-26 14:00N 58°00' E 005°54'7 3.4 300 / 191007.5 5.3 2.1 5.5
2015-Jan-26 12:00N 57°54' E 005°48'7 8.5 290 / 161007.7 6.5 2.7 5.8
2015-Jan-26 11:11N 58°00' E 005°42'316.7
2015-Jan-26 11:00N 58°00' E 005°36'2 4.8 290 / 101008.1 6.5 2.2 6.0
2015-Jan-26 10:33N 58°02' E 005°36'4 6.7
2015-Jan-26 10:00N 58°00' E 005°30'4 8.7 290 / 61008.5 5.9 1.4 6.0
2015-Jan-26 09:33N 58°04' E 005°31'5 9.5
2015-Jan-26 09:00N 58°00' E 005°24'6 3.0 270 / 121008.3 6.8 4.8 6.0
2015-Jan-26 07:00N 57°54' E 005°24'9 8.8 310 / 101009.2 6.6 4.9 6.0
2015-Jan-26 06:00N 57°48' E 005°36'9 4.4 300 / 121009.2 7.0 6.1 5.9
2015-Jan-26 04:00N 57°42' E 005°48'0 0.0 260 / 161009.6 7.3 6.4 6.3
2015-Jan-26 03:00N 57°42' E 005°48'7 6.8 240 / 171010.2 7.5 6.5 6.6
2015-Jan-26 02:00N 57°36' E 005°54'0 0.0 230 / 191011.5 7.1 6.3 5.9
2015-Jan-26 01:00N 57°36' E 005°54'9 8.8 230 / 191011.8 7.0 5.9 5.9
2015-Jan-26 00:00N 57°42' E 006°06'19 9.6 220 / 211013.2 6.5 5.4 5.6
2015-Jan-25 22:00N 57°42' E 006°42'10 9.6 200 / 171015.9 6.1 4.9 5.4
2015-Jan-25 21:00N 57°42' E 007°00'1414.1 200 / 171016.9 5.9 4.7 5.5
2015-Jan-25 20:00N 57°48' E 007°24'19 9.6 210 / 161018.5 6.1 4.2 5.4
2015-Jan-25 18:00N 57°48' E 008°00'1414.1 230 / 101020.0 5.9 4.0 5.0
2015-Jan-25 17:00N 57°54' E 008°24'3 3.2 220 / 81020.2 5.5 3.1 5.6
2015-Jan-25 16:00N 57°54' E 008°30'16 6.7 260 / 81020.3 5.0 2.2 5.1
2015-Jan-25 13:32N 58°09' E 008°43'3 5.8
2015-Jan-25 13:00N 58°12' E 008°42'7 6.8 320 / 21020.3 3.0-1.9 4.8
2015-Jan-25 12:00N 58°18' E 008°48'11 2.2 350 / 61020.7 2.0-3.3 4.4
2015-Jan-25 07:00N 58°24' E 009°06'0 0.0 320 / 81018.7 2.3-5.7 4.6
2015-Jan-25 06:00N 58°24' E 009°06'7 3.4 300 / 61018.3 2.3-4.4 4.6
2015-Jan-25 04:00N 58°30' E 009°12'7 6.8 300 / 101016.6 2.1-4.4 3.9
2015-Jan-25 03:00N 58°36' E 009°18'0 0.0 290 / 121015.7 2.1-4.4 4.0
2015-Jan-25 02:00N 58°36' E 009°18'6 6.0 280 / 61015.2 2.1-3.2 3.9
2015-Jan-25 01:00N 58°30' E 009°18'1212.4 290 / 121014.6 2.7-2.7 5.1
2015-Jan-25 00:00N 58°18' E 009°24'6 2.1 300 / 171013.7 3.5-1.4 4.6
2015-Jan-24 21:00N 58°18' E 009°36'9 9.5 290 / 191012.0 4.2-0.5 6.0
2015-Jan-24 20:00N 58°18' E 009°54'6 3.0 280 / 211011.3 4.5-0.2 6.1
2015-Jan-24 18:00N 58°24' E 009°54'9 8.7 270 / 251010.3 4.6-0.5 5.9
2015-Jan-24 17:00N 58°30' E 009°42'19 4.8 260 / 231009.6 4.5 0.1 5.0
2015-Jan-24 13:00N 58°48' E 009°54'12 4.1 300 / 141006.6 3.9 0.9 4.3
2015-Jan-24 10:00N 59°00' E 010°00'0 0.0 220 / 121004.7 3.9 2.3 2.1
2015-Jan-24 09:00N 59°00' E 010°00'0 0.0 210 / 251004.6 3.6 1.8 2.6
2015-Jan-24 07:00N 59°00' E 010°00'0 0.0 210 / 191006.0 2.2 0.4 1.5
2015-Jan-24 06:00N 59°00' E 010°00'0 0.0 200 / 231006.2 2.2-0.1
2015-Jan-24 04:00N 59°00' E 010°00'0 0.0 220 / 271007.6 1.6-0.1 3.6
2015-Jan-24 03:00N 59°00' E 010°00'0 0.0 210 / 231008.3 2.1-0.0
2015-Jan-24 02:00N 59°00' E 010°00'0 0.0 210 / 271009.0 2.9 0.3
2015-Jan-24 01:00N 59°00' E 010°00'0 0.0 210 / 291010.0 3.1-14.9 1.2
2015-Jan-24 00:00N 59°00' E 010°00'6 3.0 210 / 331010.7 3.2 0.6 3.6
2015-Jan-23 22:00N 58°54' E 010°00'9 4.3 210 / 331013.1 4.0 0.2 3.8
2015-Jan-23 20:00N 58°48' E 009°48'7 3.4 220 / 291014.5 4.3-0.2 3.9
2015-Jan-23 18:00N 58°42' E 009°42'0 0.0 220 / 291016.5 3.1-2.1 3.2
2015-Jan-23 17:00N 58°42' E 009°42'7 2.3 230 / 231016.7 3.5 1.1 3.5
2015-Jan-23 14:00N 58°48' E 009°48'0 0.0 300 1019.6 -2.7-5.5 2.8
2015-Jan-23 11:00N 58°48' E 009°48'3 3.1 310 / 21022.1 -4.6-7.8 3.1
2015-Jan-23 10:00N 58°48' E 009°54'17 5.5 330 / 61023.2 -4.0-6.7 2.6
2015-Jan-23 07:00N 58°54' E 010°24'3 3.1 240 / 61022.8 -1.5-5.9 3.0
2015-Jan-23 06:00N 58°54' E 010°30'7 6.8 220 / 21022.8 -2.0-6.3 3.0
2015-Jan-23 05:00N 58°48' E 010°24'3 3.1 300 / 21023.2 -2.2-6.4 3.1
2015-Jan-23 04:00N 58°48' E 010°18'3 3.1 310 / 41023.3 -2.2-6.8 3.1
2015-Jan-23 03:00N 58°48' E 010°12'6 3.0 320 / 41023.5 -2.1-50.1 3.0
2015-Jan-23 01:00N 58°42' E 010°12'0 0.0 360 / 61024.0 -1.4-6.4 5.8
2015-Jan-23 00:00N 58°42' E 010°12'7 3.4 030 / 61024.0 -1.1-6.4 5.9
2015-Jan-22 22:00N 58°36' E 010°18'4 8.4 020 / 81024.0 -0.6-6.5 5.9
2015-Jan-22 21:31N 58°39' E 010°22'4 7.0
2015-Jan-22 21:00N 58°36' E 010°24'3 8.0 030 / 101024.0 -0.9-6.0 5.1
2015-Jan-22 20:33N 58°39' E 010°27'6 5.8
2015-Jan-22 19:33N 58°35' E 010°34'5 9.1
2015-Jan-22 19:00N 58°30' E 010°36'2 3.9 030 / 121023.8 -0.3-5.2 5.6
2015-Jan-22 18:33N 58°31' E 010°38'4 7.9
2015-Jan-22 18:00N 58°30' E 010°30'0 0.3 030 / 121023.7 -0.1-5.0 5.8
2015-Jan-22 17:32N 58°30' E 010°30'611.0
2015-Jan-22 17:00N 58°24' E 010°30'4 8.0 040 / 161023.2 0.3-4.1 5.9
2015-Jan-22 16:33N 58°27' E 010°32'4 6.2
2015-Jan-22 16:00N 58°24' E 010°30'2 4.9 060 / 141023.0 0.6-3.6 5.5
2015-Jan-22 15:33N 58°24' E 010°34'611.1
2015-Jan-22 15:00N 58°18' E 010°30'512.5 050 / 141022.6 0.4-2.9 5.8
2015-Jan-22 14:33N 58°23' E 010°35'8 8.4
2015-Jan-22 13:33N 58°19' E 010°21'2 2.4
2015-Jan-22 12:33N 58°20' E 010°24'2 4.1
2015-Jan-22 12:00N 58°18' E 010°24'715.7 060 / 161022.6 0.7-2.3 5.9
2015-Jan-22 11:33N 58°21' E 010°36'3 4.5
2015-Jan-22 11:00N 58°18' E 010°36'1 2.7 080 / 121022.3 1.1-2.2 5.9
2015-Jan-22 10:33N 58°17' E 010°38'2 2.4
2015-Jan-22 09:33N 58°20' E 010°36'2 2.9
2015-Jan-22 09:00N 58°18' E 010°36'3 6.1 090 / 121022.3 1.6-2.0 5.7
2015-Jan-22 08:33N 58°17' E 010°40'5 9.1
2015-Jan-22 08:00N 58°12' E 010°36'4 8.7 090 / 121021.8 1.3-2.1 5.9
2015-Jan-22 07:33N 58°14' E 010°43'815.2
2015-Jan-22 07:00N 58°06' E 010°36'4 8.4 070 / 121021.1 1.6-1.9 5.9
2015-Jan-22 06:33N 58°09' E 010°41'4 6.5
2015-Jan-22 06:00N 58°06' E 010°36'410.3 060 / 81020.7 1.6-1.8 5.9
2015-Jan-22 05:33N 58°10' E 010°38'4 8.0
2015-Jan-22 05:00N 58°06' E 010°36'4 8.5 060 / 81020.7 2.1-1.1 5.9
2015-Jan-22 04:33N 58°09' E 010°41'1017.0
2015-Jan-22 04:00N 58°00' E 010°48'511.9 060 / 121020.5 1.1-1.6 4.8
2015-Jan-22 03:33N 58°03' E 010°56'3 5.3
2015-Jan-22 03:00N 58°00' E 010°54'2 4.7 070 / 81020.6 1.1-1.8 4.6
2015-Jan-22 02:33N 58°00' E 010°50'813.4
2015-Jan-22 02:00N 57°54' E 010°42'613.9 050 / 101020.6 1.3-1.5 6.2
2015-Jan-22 01:33N 58°00' E 010°41'3 5.1
2015-Jan-22 01:00N 58°00' E 010°36'3 7.6 050 / 101020.5 1.6-1.7 6.2
2015-Jan-22 00:33N 58°03' E 010°34'610.4
2015-Jan-22 00:00N 58°06' E 010°24'1 1.7 060 / 121020.5 1.8-1.9 6.1
2015-Jan-21 23:33N 58°07' E 010°24'3 5.6
2015-Jan-21 23:00N 58°06' E 010°18'320.1 050 / 121020.6 1.9-1.5 6.3
2015-Jan-21 22:50N 58°09' E 010°21'1 9.0
2015-Jan-21 22:46N 58°09' E 010°21'1 5.4
2015-Jan-21 22:30N 58°11' E 010°21'5 9.7
2015-Jan-21 22:00N 58°06' E 010°18'4 8.8 070 / 121020.6 1.8-1.7 6.4
2015-Jan-21 21:33N 58°10' E 010°17'711.9
2015-Jan-21 21:00N 58°06' E 010°06'6 3.2 050 / 141020.2 2.3-1.4 6.6
2015-Jan-21 19:00N 58°06' E 009°54'7 6.8 060 / 161019.7 2.2-2.1 6.0
2015-Jan-21 18:00N 58°00' E 009°48'6 3.0 060 / 161019.3 1.7-1.4 6.3
2015-Jan-21 16:00N 58°06' E 009°48'1111.3 090 / 191018.5 2.3-1.6 6.1
2015-Jan-21 15:00N 58°00' E 009°30'6 6.0 080 / 171017.8 2.6-1.8 6.0
2015-Jan-21 14:00N 57°54' E 009°30'15 7.7 070 / 161017.7 1.3-1.5 6.1
2015-Jan-21 12:00N 57°42' E 009°48'1212.4 100 / 141017.3 2.4-1.2 6.1
2015-Jan-21 11:00N 57°30' E 009°54'0 0.0 110 / 61017.2 2.1-0.3 4.3
2015-Jan-21 09:00N 57°30' E 009°54'0 0.0 130 / 41016.7 0.6-0.8 4.1
2015-Jan-21 07:00N 57°30' E 009°54'0 0.0 110 / 101015.3 0.7-0.5 4.3
2015-Jan-21 06:00N 57°30' E 009°54'0 0.0 110 / 101014.8 1.3 0.1 4.1
2015-Jan-21 04:00N 57°30' E 009°54'   110 / 41014.6 0.6-0.7 4.1

Dump ship's entire track history